createdAt,value
2022-12-14T00:02:24.618Z,41.40
2022-12-14T00:04:51.315Z,43.40
2022-12-14T00:07:17.871Z,43.60
2022-12-14T00:09:45.683Z,43.50
2022-12-14T00:12:12.232Z,43.20
2022-12-14T00:14:39.872Z,41.70
2022-12-14T00:17:06.423Z,43.10
2022-12-14T00:19:32.984Z,43.20
2022-12-14T00:21:59.512Z,43.40
2022-12-14T00:24:26.091Z,42.90
2022-12-14T00:26:53.243Z,42.30
2022-12-14T00:29:19.948Z,42.30
2022-12-14T00:31:48.648Z,43.20
2022-12-14T00:34:15.572Z,43.30
2022-12-14T00:36:42.136Z,42.70
2022-12-14T00:39:08.713Z,42.30
2022-12-14T00:41:35.258Z,41.20
2022-12-14T00:44:01.835Z,43.40
2022-12-14T00:46:28.445Z,43.00
2022-12-14T00:48:55.120Z,43.00
2022-12-14T00:51:21.720Z,42.60
2022-12-14T00:53:48.269Z,40.80
2022-12-14T00:56:14.830Z,40.40
2022-12-14T00:58:41.442Z,41.00
2022-12-14T01:01:10.353Z,41.00
2022-12-14T01:03:37.014Z,41.40
2022-12-14T01:06:03.622Z,42.20
2022-12-14T01:08:35.578Z,42.50
2022-12-14T01:11:04.110Z,42.40
2022-12-14T01:13:30.717Z,42.50
2022-12-14T01:16:01.714Z,41.80
2022-12-14T01:18:28.338Z,40.80
2022-12-14T01:20:54.878Z,42.50
2022-12-14T01:23:21.428Z,42.50
2022-12-14T01:25:48.944Z,42.40
2022-12-14T01:28:15.605Z,41.30
2022-12-14T01:30:42.181Z,42.00
2022-12-14T01:33:08.746Z,42.60
2022-12-14T01:35:35.344Z,42.50
2022-12-14T01:38:01.882Z,42.40
2022-12-14T01:40:28.432Z,41.80
2022-12-14T01:42:54.991Z,42.40
2022-12-14T01:45:22.116Z,42.60
2022-12-14T01:47:51.203Z,42.20
2022-12-14T01:50:26.915Z,42.10
2022-12-14T01:52:56.155Z,42.30
2022-12-14T01:55:26.402Z,42.10
2022-12-14T01:58:01.861Z,42.70
2022-12-14T02:00:28.652Z,42.50
2022-12-14T02:03:00.501Z,42.30
2022-12-14T02:05:27.393Z,42.50
2022-12-14T02:07:55.536Z,42.10
2022-12-14T02:10:24.802Z,41.00
2022-12-14T02:12:55.758Z,42.80
2022-12-14T02:15:22.380Z,42.50
2022-12-14T02:17:48.954Z,42.10
2022-12-14T02:20:16.610Z,42.20
2022-12-14T02:22:43.135Z,42.20
2022-12-14T02:25:09.714Z,42.40
2022-12-14T02:27:51.499Z,42.50
2022-12-14T02:30:19.453Z,42.30
2022-12-14T02:32:46.028Z,42.30
2022-12-14T02:35:28.178Z,41.70
2022-12-14T02:38:01.221Z,42.20
2022-12-14T02:40:31.411Z,42.60
2022-12-14T02:43:05.832Z,42.30
2022-12-14T02:45:32.384Z,42.10
2022-12-14T02:48:01.135Z,41.70
2022-12-14T02:50:36.795Z,41.90
2022-12-14T02:53:23.388Z,42.40
2022-12-14T02:55:51.506Z,42.50
2022-12-14T02:58:24.042Z,42.10
2022-12-14T03:00:51.082Z,41.70
2022-12-14T03:03:17.663Z,40.70
2022-12-14T03:05:54.230Z,42.70
2022-12-14T03:08:21.887Z,42.20
2022-12-14T03:10:50.691Z,42.40
2022-12-14T03:13:30.014Z,41.60
2022-12-14T03:16:13.981Z,40.60
2022-12-14T03:18:46.817Z,42.70
2022-12-14T03:21:15.632Z,42.30
2022-12-14T03:23:44.683Z,43.00
2022-12-14T03:26:21.682Z,41.90
2022-12-14T03:28:53.332Z,40.80
2022-12-14T03:31:36.419Z,42.50
2022-12-14T03:34:05.144Z,42.10
2022-12-14T03:36:37.309Z,42.30
2022-12-14T03:39:06.605Z,41.00
2022-12-14T03:41:48.781Z,42.20
2022-12-14T03:44:23.971Z,43.20
2022-12-14T03:46:56.621Z,42.20
2022-12-14T03:49:41.145Z,42.00
2022-12-14T03:52:07.758Z,40.70
2022-12-14T03:54:34.296Z,42.50
2022-12-14T03:57:07.012Z,42.30
2022-12-14T03:59:40.272Z,42.20
2022-12-14T04:02:10.426Z,41.50
2022-12-14T04:04:37.076Z,40.60
2022-12-14T04:07:17.977Z,41.70
2022-12-14T04:10:02.302Z,42.00
2022-12-14T04:12:51.928Z,42.20
2022-12-14T04:15:57.203Z,41.60
2022-12-14T04:18:48.339Z,39.70
2022-12-14T04:21:33.434Z,41.40
2022-12-14T04:24:20.250Z,41.40
2022-12-14T04:26:50.899Z,42.60
2022-12-14T04:29:45.687Z,39.90
2022-12-14T04:32:18.006Z,41.20
2022-12-14T04:34:46.193Z,42.00
2022-12-14T04:37:15.434Z,41.70
2022-12-14T04:39:50.819Z,40.10
2022-12-14T04:42:17.955Z,41.00
2022-12-14T04:44:50.390Z,41.50
2022-12-14T04:47:18.010Z,42.40
2022-12-14T04:49:52.121Z,41.20
2022-12-14T04:52:25.408Z,39.30
2022-12-14T04:54:56.049Z,38.60
2022-12-14T04:57:31.204Z,39.60
2022-12-14T04:59:58.713Z,39.50
2022-12-14T05:02:31.665Z,39.70
2022-12-14T05:05:07.904Z,40.60
2022-12-14T05:07:49.614Z,40.00
2022-12-14T05:10:18.621Z,40.80
2022-12-14T05:12:48.258Z,40.30
2022-12-14T05:15:23.466Z,40.40
2022-12-14T05:17:50.488Z,40.90
2022-12-14T05:20:23.885Z,40.40
2022-12-14T05:22:50.602Z,40.50
2022-12-14T05:25:17.223Z,40.90
2022-12-14T05:27:43.876Z,40.20
2022-12-14T05:30:10.838Z,40.90
2022-12-14T05:32:37.577Z,41.00
2022-12-14T05:35:04.696Z,40.50
2022-12-14T05:37:31.282Z,39.90
2022-12-14T05:39:57.895Z,39.70
2022-12-14T05:42:24.444Z,39.40
2022-12-14T05:44:51.095Z,41.30
2022-12-14T05:47:17.655Z,40.30
2022-12-14T05:49:44.199Z,40.30
2022-12-14T05:52:10.739Z,40.60
2022-12-14T05:54:37.305Z,38.90
2022-12-14T05:57:03.927Z,39.90
2022-12-14T05:59:30.901Z,39.90
2022-12-14T06:01:58.015Z,40.10
2022-12-14T06:04:24.717Z,40.30
2022-12-14T06:06:51.621Z,40.40
2022-12-14T06:09:18.222Z,39.80
2022-12-14T06:11:45.623Z,40.50
2022-12-14T06:14:12.478Z,40.40
2022-12-14T06:16:43.136Z,40.00
2022-12-14T06:19:10.184Z,40.40
2022-12-14T06:21:37.629Z,40.10
2022-12-14T06:24:04.704Z,40.50
2022-12-14T06:26:32.221Z,40.20
2022-12-14T06:28:59.248Z,39.80
2022-12-14T06:31:27.258Z,40.50
2022-12-14T06:33:54.779Z,40.00
2022-12-14T06:36:23.857Z,40.00
2022-12-14T06:38:51.243Z,40.30
2022-12-14T06:41:18.199Z,39.70
2022-12-14T06:43:44.963Z,40.30
2022-12-14T06:46:17.740Z,40.00
2022-12-14T06:48:48.659Z,39.90
2022-12-14T06:51:15.335Z,40.30
2022-12-14T06:53:41.891Z,39.70
2022-12-14T06:56:09.845Z,40.30
2022-12-14T06:58:36.548Z,40.10
2022-12-14T07:01:04.084Z,39.90
2022-12-14T07:03:31.509Z,40.30
2022-12-14T07:05:58.801Z,39.90
2022-12-14T07:08:25.849Z,40.10
2022-12-14T07:10:55.336Z,40.20
2022-12-14T07:13:25.827Z,39.80
2022-12-14T07:15:53.404Z,40.10
2022-12-14T07:18:20.562Z,40.20
2022-12-14T07:20:57.405Z,39.80
2022-12-14T07:23:27.888Z,40.30
2022-12-14T07:26:00.586Z,40.00
2022-12-14T07:28:27.920Z,39.80
2022-12-14T07:31:00.732Z,40.10
2022-12-14T07:33:28.255Z,40.30
2022-12-14T07:36:05.442Z,39.80
2022-12-14T07:38:32.482Z,39.80
2022-12-14T07:41:12.267Z,41.00
2022-12-14T07:43:39.951Z,40.70
2022-12-14T07:46:08.212Z,40.50
2022-12-14T07:48:34.822Z,40.60
2022-12-14T07:51:05.430Z,39.90
2022-12-14T07:53:32.440Z,40.10
2022-12-14T07:56:06.663Z,40.20
2022-12-14T07:58:35.292Z,39.70
2022-12-14T08:01:31.260Z,39.90
2022-12-14T08:04:05.014Z,39.90
2022-12-14T08:06:32.298Z,39.80
2022-12-14T08:08:58.964Z,39.90
2022-12-14T08:11:25.566Z,40.30
2022-12-14T08:13:54.744Z,39.90
2022-12-14T08:16:21.787Z,40.30
2022-12-14T08:18:48.401Z,40.30
2022-12-14T08:21:15.768Z,40.10
2022-12-14T08:23:42.365Z,40.40
2022-12-14T08:26:09.008Z,40.20
2022-12-14T08:28:36.142Z,40.30
2022-12-14T08:31:10.268Z,39.90
2022-12-14T08:33:37.733Z,39.70
2022-12-14T08:36:05.373Z,40.20
2022-12-14T08:38:31.956Z,40.20
2022-12-14T08:41:02.651Z,40.10
2022-12-14T08:43:29.452Z,40.10
2022-12-14T08:45:56.228Z,40.20
2022-12-14T08:48:22.765Z,40.30
2022-12-14T08:50:49.890Z,40.00
2022-12-14T08:53:16.694Z,39.80
2022-12-14T08:55:43.659Z,40.20
2022-12-14T08:58:10.461Z,40.50
2022-12-14T09:00:40.186Z,39.90
2022-12-14T09:03:06.968Z,40.30
2022-12-14T09:05:36.914Z,39.90
2022-12-14T09:08:03.509Z,40.10
2022-12-14T09:10:30.235Z,39.90
2022-12-14T09:12:58.164Z,40.20
2022-12-14T09:15:25.112Z,40.20
2022-12-14T09:17:51.648Z,40.20
2022-12-14T09:20:18.964Z,40.00
2022-12-14T09:22:45.847Z,39.90
2022-12-14T09:25:12.441Z,40.10
2022-12-14T09:27:39.020Z,39.90
2022-12-14T09:30:06.050Z,40.00
2022-12-14T09:32:32.622Z,40.30
2022-12-14T09:34:59.561Z,40.20
2022-12-14T09:37:26.134Z,40.10
2022-12-14T09:39:52.845Z,40.10
2022-12-14T09:42:26.052Z,39.80
2022-12-14T09:44:57.856Z,40.30
2022-12-14T09:47:50.780Z,40.50
2022-12-14T09:50:18.723Z,39.70
2022-12-14T09:52:47.127Z,40.50
2022-12-14T09:55:26.227Z,40.10
2022-12-14T09:57:59.288Z,39.80
2022-12-14T10:00:27.477Z,40.20
2022-12-14T10:02:54.093Z,40.00
2022-12-14T10:05:20.736Z,40.30
2022-12-14T10:07:59.316Z,40.20
2022-12-14T10:10:32.773Z,40.40
2022-12-14T10:13:11.031Z,40.30
2022-12-14T10:15:46.190Z,40.30
2022-12-14T10:18:56.883Z,40.50
2022-12-14T10:21:18.864Z,39.90
2022-12-14T10:23:51.252Z,40.20
2022-12-14T10:26:19.404Z,40.10
2022-12-14T10:28:48.432Z,39.90
2022-12-14T10:31:16.994Z,40.30
2022-12-14T10:33:44.827Z,40.30
2022-12-14T10:36:18.454Z,40.10
2022-12-14T10:38:58.723Z,40.00
2022-12-14T10:42:01.340Z,40.50
2022-12-14T10:44:33.835Z,40.20
2022-12-14T10:47:15.353Z,40.20
2022-12-14T10:49:47.070Z,40.40
2022-12-14T10:52:18.930Z,40.00
2022-12-14T10:54:48.587Z,39.50
2022-12-14T10:57:22.588Z,39.30
2022-12-14T11:00:07.289Z,39.60
2022-12-14T11:02:37.922Z,40.40
2022-12-14T11:05:13.888Z,40.80
2022-12-14T11:07:43.280Z,40.10
2022-12-14T11:10:16.173Z,40.50
2022-12-14T11:12:52.509Z,40.50
2022-12-14T11:15:24.219Z,40.10
2022-12-14T11:18:01.200Z,40.50
2022-12-14T11:20:27.945Z,40.40
2022-12-14T11:22:55.800Z,40.20
2022-12-14T11:25:25.138Z,40.50
2022-12-14T11:27:52.072Z,40.70
2022-12-14T11:30:18.630Z,40.20
2022-12-14T11:32:47.355Z,40.70
2022-12-14T11:35:18.747Z,40.40
2022-12-14T11:37:48.082Z,39.00
2022-12-14T11:40:22.893Z,39.20
2022-12-14T11:42:50.463Z,39.40
2022-12-14T11:45:27.976Z,40.40
2022-12-14T11:48:13.416Z,40.80
2022-12-14T11:50:40.477Z,40.50
2022-12-14T11:53:11.743Z,40.00
2022-12-14T11:55:40.163Z,40.30
2022-12-14T11:58:13.658Z,41.10
2022-12-14T12:00:49.674Z,42.20
2022-12-14T12:03:22.934Z,42.50
2022-12-14T12:05:50.221Z,41.50
2022-12-14T12:08:18.995Z,41.30
2022-12-14T12:10:49.650Z,41.90
2022-12-14T12:13:20.175Z,41.60
2022-12-14T12:15:50.092Z,41.50
2022-12-14T12:18:16.834Z,41.10
2022-12-14T12:21:02.131Z,41.10
2022-12-14T12:23:33.495Z,41.50
2022-12-14T12:26:00.575Z,41.50
2022-12-14T12:28:29.885Z,41.60
2022-12-14T12:31:00.536Z,41.40
2022-12-14T12:33:30.280Z,41.30
2022-12-14T12:35:59.012Z,42.00
2022-12-14T12:38:37.131Z,42.10
2022-12-14T12:41:13.247Z,40.80
2022-12-14T12:43:50.179Z,40.00
2022-12-14T12:46:20.238Z,39.70
2022-12-14T12:48:49.433Z,40.70
2022-12-14T12:51:18.944Z,40.50
2022-12-14T12:53:47.506Z,40.50
2022-12-14T12:56:19.510Z,40.10
2022-12-14T12:58:52.173Z,40.10
2022-12-14T13:01:37.941Z,40.40
2022-12-14T13:04:22.242Z,39.90
2022-12-14T13:06:50.651Z,40.50
2022-12-14T13:09:20.034Z,40.10
2022-12-14T13:11:47.185Z,40.10
2022-12-14T13:14:29.129Z,40.20
2022-12-14T13:16:56.166Z,39.90
2022-12-14T13:19:50.649Z,40.40
2022-12-14T13:22:22.682Z,39.70
2022-12-14T13:24:57.007Z,40.00
2022-12-14T13:27:28.451Z,39.90
2022-12-14T13:30:02.297Z,39.60
2022-12-14T13:32:32.296Z,39.90
2022-12-14T13:35:22.164Z,39.90
2022-12-14T13:38:04.158Z,39.30
2022-12-14T13:40:52.005Z,39.60
2022-12-14T13:43:33.438Z,39.70
2022-12-14T13:46:21.365Z,39.70
2022-12-14T13:48:49.798Z,39.70
2022-12-14T13:51:27.430Z,39.40
2022-12-14T13:53:58.864Z,39.80
2022-12-14T13:56:37.294Z,39.50
2022-12-14T13:59:20.813Z,39.50
2022-12-14T14:01:47.449Z,39.70
2022-12-14T14:04:17.082Z,39.50
2022-12-14T14:06:45.968Z,39.60
2022-12-14T14:09:31.506Z,39.90
2022-12-14T14:12:02.033Z,39.70
2022-12-14T14:14:50.868Z,39.80
2022-12-14T14:17:25.321Z,39.50
2022-12-14T14:19:56.066Z,39.70
2022-12-14T14:22:25.454Z,39.90
2022-12-14T14:24:58.705Z,39.70
2022-12-14T14:27:27.272Z,40.10
2022-12-14T14:29:54.238Z,40.00
2022-12-14T14:32:27.201Z,40.00
2022-12-14T14:34:53.890Z,40.00
2022-12-14T14:37:21.786Z,40.00
2022-12-14T14:40:04.658Z,39.90
2022-12-14T14:42:38.228Z,40.00
2022-12-14T14:45:08.168Z,40.10
2022-12-14T14:47:36.491Z,40.00
2022-12-14T14:50:06.632Z,39.80
2022-12-14T14:52:38.938Z,40.00
2022-12-14T14:55:51.568Z,39.80
2022-12-14T14:58:33.150Z,39.70
2022-12-14T15:01:08.662Z,40.00
2022-12-14T15:03:52.797Z,39.80
2022-12-14T15:06:39.700Z,39.90
2022-12-14T15:09:09.351Z,39.80
2022-12-14T15:11:47.119Z,39.60
2022-12-14T15:14:28.688Z,39.80
2022-12-14T15:16:55.264Z,39.60
2022-12-14T15:19:33.346Z,39.60
2022-12-14T15:22:02.601Z,40.40
2022-12-14T15:24:32.634Z,39.50
2022-12-14T15:26:59.191Z,39.70
2022-12-14T15:29:27.882Z,39.80
2022-12-14T15:31:59.277Z,39.30
2022-12-14T15:34:26.922Z,39.80
2022-12-14T15:36:53.987Z,39.70
2022-12-14T15:39:28.033Z,39.30
2022-12-14T15:42:13.691Z,39.80
2022-12-14T15:44:47.984Z,39.80
2022-12-14T15:47:21.852Z,39.50
2022-12-14T15:49:48.424Z,39.90
2022-12-14T15:52:16.404Z,39.50
2022-12-14T15:54:43.170Z,39.70
2022-12-14T15:57:16.324Z,39.70
2022-12-14T15:59:43.495Z,39.30
2022-12-14T16:02:10.260Z,39.70
2022-12-14T16:04:36.992Z,39.60
2022-12-14T16:07:09.523Z,39.70
2022-12-14T16:09:39.802Z,39.50
2022-12-14T16:12:28.133Z,39.20
2022-12-14T16:14:59.008Z,39.50
2022-12-14T16:17:33.861Z,39.40
2022-12-14T16:20:09.806Z,39.30
2022-12-14T16:22:39.175Z,39.40
2022-12-14T16:25:05.721Z,39.20
2022-12-14T16:27:33.908Z,39.50
2022-12-14T16:30:09.648Z,39.20
2022-12-14T16:32:36.217Z,39.10
2022-12-14T16:35:02.919Z,39.40
2022-12-14T16:37:33.085Z,39.60
2022-12-14T16:39:59.872Z,39.20
2022-12-14T16:42:26.785Z,39.10
2022-12-14T16:44:54.067Z,39.00
2022-12-14T16:47:20.659Z,39.30
2022-12-14T16:49:50.693Z,38.90
2022-12-14T16:52:34.209Z,39.20
2022-12-14T16:55:10.116Z,39.20
2022-12-14T16:57:38.839Z,38.90
2022-12-14T17:00:06.599Z,39.40
2022-12-14T17:02:35.173Z,38.90
2022-12-14T17:05:11.461Z,38.60
2022-12-14T17:07:38.191Z,38.10
2022-12-14T17:10:05.220Z,39.20
2022-12-14T17:12:31.802Z,39.50
2022-12-14T17:14:58.460Z,39.10
2022-12-14T17:17:28.936Z,39.60
2022-12-14T17:19:55.607Z,39.70
2022-12-14T17:22:24.742Z,39.00
2022-12-14T17:24:51.394Z,40.10
2022-12-14T17:27:18.769Z,39.40
2022-12-14T17:29:45.792Z,39.30
2022-12-14T17:32:13.385Z,39.70
2022-12-14T17:34:40.126Z,39.40
2022-12-14T17:37:15.202Z,39.50
2022-12-14T17:39:41.782Z,39.60
2022-12-14T17:42:10.745Z,39.40
2022-12-14T17:44:38.904Z,39.70
2022-12-14T17:47:05.599Z,39.40
2022-12-14T17:49:35.226Z,39.80
2022-12-14T17:52:04.079Z,40.60
2022-12-14T17:54:31.340Z,39.90
2022-12-14T17:56:58.007Z,39.60
2022-12-14T17:59:24.619Z,39.90
2022-12-14T18:01:51.252Z,39.90
2022-12-14T18:04:17.884Z,40.50
2022-12-14T18:06:44.602Z,39.60
2022-12-14T18:09:11.200Z,40.10
2022-12-14T18:11:49.341Z,40.50
2022-12-14T18:14:25.150Z,40.80
2022-12-14T18:16:51.705Z,39.60
2022-12-14T18:19:18.300Z,39.70
2022-12-14T18:21:44.867Z,39.60
2022-12-14T18:24:15.291Z,40.90
2022-12-14T18:26:42.115Z,40.50
2022-12-14T18:29:08.855Z,40.80
2022-12-14T18:31:37.204Z,40.50
2022-12-14T18:34:04.771Z,40.40
2022-12-14T18:36:31.319Z,40.40
2022-12-14T18:38:57.984Z,40.00
2022-12-14T18:41:26.052Z,40.30
2022-12-14T18:43:54.191Z,40.10
2022-12-14T18:46:20.859Z,39.60
2022-12-14T18:48:48.427Z,41.10
2022-12-14T18:51:26.736Z,39.90
2022-12-14T18:53:54.435Z,40.00
2022-12-14T18:56:23.221Z,39.90
2022-12-14T18:58:50.505Z,39.80
2022-12-14T19:01:19.174Z,40.20
2022-12-14T19:03:45.984Z,39.70
2022-12-14T19:06:42.845Z,40.20
2022-12-14T19:09:00.984Z,40.00
2022-12-14T19:11:35.661Z,39.80
2022-12-14T19:14:02.259Z,39.90
2022-12-14T19:16:29.764Z,39.50
2022-12-14T19:18:56.772Z,39.90
2022-12-14T19:21:25.402Z,39.60
2022-12-14T19:23:51.993Z,39.50
2022-12-14T19:26:18.842Z,40.00
2022-12-14T19:28:45.578Z,39.70
2022-12-14T19:31:12.457Z,39.80
2022-12-14T19:33:39.186Z,39.90
2022-12-14T19:36:06.640Z,39.30
2022-12-14T19:38:34.363Z,39.90
2022-12-14T19:41:02.688Z,39.50
2022-12-14T19:43:30.010Z,39.50
2022-12-14T19:45:56.971Z,39.60
2022-12-14T19:48:23.643Z,38.20
2022-12-14T19:50:50.253Z,37.40
2022-12-14T19:53:27.729Z,37.50
2022-12-14T19:55:54.479Z,37.00
2022-12-14T19:58:22.081Z,37.70
2022-12-14T20:00:49.723Z,37.20
2022-12-14T20:03:16.411Z,37.40
2022-12-14T20:05:53.592Z,37.80
2022-12-14T20:08:20.335Z,37.60
2022-12-14T20:10:47.377Z,37.20
2022-12-14T20:13:14.010Z,37.20
2022-12-14T20:15:46.909Z,37.00
2022-12-14T20:18:13.471Z,37.00
2022-12-14T20:20:40.016Z,36.50
2022-12-14T20:23:06.575Z,37.60
2022-12-14T20:25:33.159Z,37.60
2022-12-14T20:27:59.810Z,37.90
2022-12-14T20:30:26.458Z,37.80
2022-12-14T20:32:53.143Z,37.90
2022-12-14T20:35:19.685Z,38.20
2022-12-14T20:37:46.257Z,37.90
2022-12-14T20:40:13.347Z,37.70
2022-12-14T20:42:40.108Z,37.70
2022-12-14T20:45:07.540Z,37.90
2022-12-14T20:47:34.670Z,37.40
2022-12-14T20:50:01.295Z,37.60
2022-12-14T20:52:27.914Z,37.50
2022-12-14T20:54:54.452Z,37.90
2022-12-14T20:57:21.020Z,37.90
2022-12-14T20:59:47.607Z,38.30
2022-12-14T21:02:18.443Z,37.40
2022-12-14T21:04:45.085Z,38.10
2022-12-14T21:07:11.792Z,38.00
2022-12-14T21:09:38.348Z,37.60
2022-12-14T21:12:23.397Z,37.80
2022-12-14T21:14:52.235Z,38.80
2022-12-14T21:17:19.795Z,38.80
2022-12-14T21:19:46.387Z,36.90
2022-12-14T21:22:15.745Z,36.20
2022-12-14T21:25:02.355Z,37.40
2022-12-14T21:27:30.284Z,37.70
2022-12-14T21:29:56.940Z,37.50
2022-12-14T21:32:23.695Z,38.60
2022-12-14T21:34:50.372Z,37.50
2022-12-14T21:37:17.138Z,36.40
2022-12-14T21:39:47.604Z,36.70
2022-12-14T21:42:20.646Z,36.60
2022-12-14T21:44:48.988Z,36.80
2022-12-14T21:47:17.205Z,37.00
2022-12-14T21:49:44.409Z,36.20
2022-12-14T21:52:15.773Z,36.00
2022-12-14T21:54:42.761Z,36.00
2022-12-14T21:57:34.963Z,36.40
2022-12-14T22:00:02.084Z,36.60
2022-12-14T22:02:28.950Z,36.00
2022-12-14T22:04:56.283Z,35.60
2022-12-14T22:07:24.031Z,35.90
2022-12-14T22:09:50.622Z,36.40
2022-12-14T22:12:18.365Z,36.20
2022-12-14T22:14:44.905Z,36.50
2022-12-14T22:17:12.569Z,35.70
2022-12-14T22:19:39.158Z,35.70
2022-12-14T22:22:05.818Z,36.30
2022-12-14T22:24:33.366Z,36.20
2022-12-14T22:27:00.200Z,36.80
2022-12-14T22:29:26.767Z,35.90
2022-12-14T22:31:53.421Z,35.80
2022-12-14T22:34:21.370Z,35.50
2022-12-14T22:36:49.388Z,35.70
2022-12-14T22:39:16.564Z,36.20
2022-12-14T22:41:43.128Z,36.50
2022-12-14T22:44:11.067Z,35.90
2022-12-14T22:46:38.181Z,35.70
2022-12-14T22:49:04.809Z,36.00
2022-12-14T22:51:32.122Z,36.30
2022-12-14T22:53:58.752Z,36.10
2022-12-14T22:56:30.539Z,35.40
2022-12-14T22:58:57.044Z,35.50
2022-12-14T23:01:24.021Z,35.80
2022-12-14T23:03:51.436Z,36.00
2022-12-14T23:06:18.404Z,36.10
2022-12-14T23:09:04.817Z,35.20
2022-12-14T23:11:50.956Z,35.20
2022-12-14T23:14:38.702Z,35.40
2022-12-14T23:17:24.403Z,35.70
2022-12-14T23:20:09.427Z,35.80
2022-12-14T23:22:54.571Z,35.10
2022-12-14T23:25:39.514Z,35.20
2022-12-14T23:28:25.071Z,35.50
2022-12-14T23:31:10.265Z,35.60
2022-12-14T23:33:55.666Z,36.10
2022-12-14T23:36:41.223Z,35.50
2022-12-14T23:39:26.138Z,35.50
2022-12-14T23:42:12.037Z,35.40
2022-12-14T23:44:57.160Z,35.20
2022-12-14T23:47:42.270Z,34.50
2022-12-14T23:50:27.523Z,35.10
2022-12-14T23:53:12.574Z,34.70
2022-12-14T23:55:57.787Z,34.90
2022-12-14T23:58:42.733Z,34.70
